sensor_id;sensor_type;location;lat;lon;timestamp;P1;durP1;ratioP1;P2;durP2;ratioP2
34639;SDS011;22600;48.186;11.526;2023-02-28T00:00:13;4.57;;;2.67;;
34639;SDS011;22600;48.186;11.526;2023-02-28T00:02:40;3.55;;;2.80;;
34639;SDS011;22600;48.186;11.526;2023-02-28T00:05:07;3.50;;;2.60;;
34639;SDS011;22600;48.186;11.526;2023-02-28T00:07:34;3.60;;;2.60;;
34639;SDS011;22600;48.186;11.526;2023-02-28T00:10:00;3.45;;;2.60;;
34639;SDS011;22600;48.186;11.526;2023-02-28T00:12:26;3.88;;;2.60;;
34639;SDS011;22600;48.186;11.526;2023-02-28T00:14:52;3.75;;;2.65;;
34639;SDS011;22600;48.186;11.526;2023-02-28T00:17:18;5.38;;;2.83;;
34639;SDS011;22600;48.186;11.526;2023-02-28T00:19:48;5.35;;;2.50;;
34639;SDS011;22600;48.186;11.526;2023-02-28T00:22:14;4.28;;;2.65;;
34639;SDS011;22600;48.186;11.526;2023-02-28T00:24:44;4.97;;;2.65;;
34639;SDS011;22600;48.186;11.526;2023-02-28T00:27:10;4.43;;;2.72;;
34639;SDS011;22600;48.186;11.526;2023-02-28T00:29:36;3.97;;;2.55;;
34639;SDS011;22600;48.186;11.526;2023-02-28T00:32:03;3.25;;;2.40;;
34639;SDS011;22600;48.186;11.526;2023-02-28T00:34:29;5.07;;;2.40;;
34639;SDS011;22600;48.186;11.526;2023-02-28T00:36:55;3.17;;;2.50;;
34639;SDS011;22600;48.186;11.526;2023-02-28T00:39:20;3.88;;;2.60;;
34639;SDS011;22600;48.186;11.526;2023-02-28T00:41:46;3.22;;;2.60;;
34639;SDS011;22600;48.186;11.526;2023-02-28T00:44:12;3.38;;;2.40;;
34639;SDS011;22600;48.186;11.526;2023-02-28T00:46:37;3.33;;;2.40;;
34639;SDS011;22600;48.186;11.526;2023-02-28T00:49:03;3.38;;;2.55;;
34639;SDS011;22600;48.186;11.526;2023-02-28T00:51:28;3.60;;;2.65;;
34639;SDS011;22600;48.186;11.526;2023-02-28T00:53:54;4.13;;;2.40;;
34639;SDS011;22600;48.186;11.526;2023-02-28T00:56:20;3.83;;;2.50;;
34639;SDS011;22600;48.186;11.526;2023-02-28T00:58:45;3.42;;;2.50;;
34639;SDS011;22600;48.186;11.526;2023-02-28T01:01:11;3.85;;;2.60;;
34639;SDS011;22600;48.186;11.526;2023-02-28T01:03:37;3.85;;;2.55;;
34639;SDS011;22600;48.186;11.526;2023-02-28T01:06:03;4.22;;;2.40;;
34639;SDS011;22600;48.186;11.526;2023-02-28T01:08:29;3.30;;;2.40;;
34639;SDS011;22600;48.186;11.526;2023-02-28T01:10:54;3.78;;;2.40;;
34639;SDS011;22600;48.186;11.526;2023-02-28T01:13:20;4.05;;;2.80;;
34639;SDS011;22600;48.186;11.526;2023-02-28T01:15:51;3.05;;;2.42;;
34639;SDS011;22600;48.186;11.526;2023-02-28T01:18:19;3.25;;;2.40;;
34639;SDS011;22600;48.186;11.526;2023-02-28T01:20:45;3.55;;;2.38;;
34639;SDS011;22600;48.186;11.526;2023-02-28T01:23:11;3.33;;;2.30;;
34639;SDS011;22600;48.186;11.526;2023-02-28T01:25:37;3.63;;;2.40;;
34639;SDS011;22600;48.186;11.526;2023-02-28T01:28:03;4.00;;;2.40;;
34639;SDS011;22600;48.186;11.526;2023-02-28T01:30:29;3.67;;;2.10;;
34639;SDS011;22600;48.186;11.526;2023-02-28T01:32:55;3.13;;;2.42;;
34639;SDS011;22600;48.186;11.526;2023-02-28T01:35:20;6.82;;;2.28;;
34639;SDS011;22600;48.186;11.526;2023-02-28T01:37:46;4.22;;;2.70;;
34639;SDS011;22600;48.186;11.526;2023-02-28T01:40:12;3.20;;;2.22;;
34639;SDS011;22600;48.186;11.526;2023-02-28T01:42:38;3.20;;;2.20;;
34639;SDS011;22600;48.186;11.526;2023-02-28T01:45:06;3.33;;;2.30;;
34639;SDS011;22600;48.186;11.526;2023-02-28T01:47:51;3.83;;;2.25;;
34639;SDS011;22600;48.186;11.526;2023-02-28T01:50:22;4.20;;;2.45;;
34639;SDS011;22600;48.186;11.526;2023-02-28T01:52:51;2.45;;;1.98;;
34639;SDS011;22600;48.186;11.526;2023-02-28T01:55:19;4.03;;;2.50;;
34639;SDS011;22600;48.186;11.526;2023-02-28T01:57:48;3.90;;;2.40;;
34639;SDS011;22600;48.186;11.526;2023-02-28T02:02:46;5.40;;;2.67;;
34639;SDS011;22600;48.186;11.526;2023-02-28T02:05:17;2.85;;;2.28;;
34639;SDS011;22600;48.186;11.526;2023-02-28T02:07:45;3.35;;;2.33;;
34639;SDS011;22600;48.186;11.526;2023-02-28T02:10:18;4.28;;;2.17;;
34639;SDS011;22600;48.186;11.526;2023-02-28T02:15:51;4.30;;;2.30;;
34639;SDS011;22600;48.186;11.526;2023-02-28T02:29:36;3.10;;;2.10;;
34639;SDS011;22600;48.186;11.526;2023-02-28T02:35:24;3.08;;;2.17;;
34639;SDS011;22600;48.186;11.526;2023-02-28T02:41:05;3.83;;;2.20;;
34639;SDS011;22600;48.186;11.526;2023-02-28T02:43:48;3.40;;;2.10;;
34639;SDS011;22600;48.186;11.526;2023-02-28T02:47:01;3.60;;;2.20;;
34639;SDS011;22600;48.186;11.526;2023-02-28T02:49:09;2.90;;;2.15;;
34639;SDS011;22600;48.186;11.526;2023-02-28T02:51:40;3.42;;;2.25;;
34639;SDS011;22600;48.186;11.526;2023-02-28T02:54:08;3.50;;;2.20;;
34639;SDS011;22600;48.186;11.526;2023-02-28T02:56:41;3.30;;;2.38;;
34639;SDS011;22600;48.186;11.526;2023-02-28T02:59:09;4.05;;;2.10;;
34639;SDS011;22600;48.186;11.526;2023-02-28T03:01:38;3.20;;;2.17;;
34639;SDS011;22600;48.186;11.526;2023-02-28T03:04:10;3.22;;;2.10;;
34639;SDS011;22600;48.186;11.526;2023-02-28T03:06:40;3.90;;;2.13;;
34639;SDS011;22600;48.186;11.526;2023-02-28T03:09:06;4.93;;;2.20;;
34639;SDS011;22600;48.186;11.526;2023-02-28T03:11:31;2.70;;;2.20;;
34639;SDS011;22600;48.186;11.526;2023-02-28T03:19:47;3.25;;;2.25;;
34639;SDS011;22600;48.186;11.526;2023-02-28T03:28:27;2.95;;;1.98;;
34639;SDS011;22600;48.186;11.526;2023-02-28T03:34:02;2.80;;;2.03;;
34639;SDS011;22600;48.186;11.526;2023-02-28T03:36:34;2.47;;;2.00;;
34639;SDS011;22600;48.186;11.526;2023-02-28T03:39:08;2.88;;;2.00;;
34639;SDS011;22600;48.186;11.526;2023-02-28T03:41:41;4.35;;;2.30;;
34639;SDS011;22600;48.186;11.526;2023-02-28T03:44:17;2.90;;;2.20;;
34639;SDS011;22600;48.186;11.526;2023-02-28T03:47:49;3.40;;;2.10;;
34639;SDS011;22600;48.186;11.526;2023-02-28T03:49:59;3.65;;;2.25;;
34639;SDS011;22600;48.186;11.526;2023-02-28T03:52:48;3.95;;;2.00;;
34639;SDS011;22600;48.186;11.526;2023-02-28T03:55:28;3.92;;;1.90;;
34639;SDS011;22600;48.186;11.526;2023-02-28T04:01:06;2.67;;;2.20;;
34639;SDS011;22600;48.186;11.526;2023-02-28T04:03:36;2.92;;;2.08;;
34639;SDS011;22600;48.186;11.526;2023-02-28T04:06:02;2.67;;;2.00;;
34639;SDS011;22600;48.186;11.526;2023-02-28T04:08:29;3.25;;;2.10;;
34639;SDS011;22600;48.186;11.526;2023-02-28T04:11:01;3.10;;;2.15;;
34639;SDS011;22600;48.186;11.526;2023-02-28T04:13:33;3.15;;;1.92;;
34639;SDS011;22600;48.186;11.526;2023-02-28T04:15:59;2.97;;;1.90;;
34639;SDS011;22600;48.186;11.526;2023-02-28T04:18:24;2.72;;;1.67;;
34639;SDS011;22600;48.186;11.526;2023-02-28T04:20:50;2.97;;;1.90;;
34639;SDS011;22600;48.186;11.526;2023-02-28T04:23:15;3.00;;;2.13;;
34639;SDS011;22600;48.186;11.526;2023-02-28T04:25:41;2.58;;;1.90;;
34639;SDS011;22600;48.186;11.526;2023-02-28T04:28:07;2.30;;;1.83;;
34639;SDS011;22600;48.186;11.526;2023-02-28T04:30:32;2.58;;;1.90;;
34639;SDS011;22600;48.186;11.526;2023-02-28T04:32:58;2.50;;;1.60;;
34639;SDS011;22600;48.186;11.526;2023-02-28T04:35:24;2.38;;;1.90;;
34639;SDS011;22600;48.186;11.526;2023-02-28T04:37:50;2.75;;;1.90;;
34639;SDS011;22600;48.186;11.526;2023-02-28T04:40:16;2.95;;;1.90;;
34639;SDS011;22600;48.186;11.526;2023-02-28T04:42:41;2.92;;;2.15;;
34639;SDS011;22600;48.186;11.526;2023-02-28T04:45:07;3.15;;;2.05;;
34639;SDS011;22600;48.186;11.526;2023-02-28T04:47:35;2.67;;;1.90;;
34639;SDS011;22600;48.186;11.526;2023-02-28T04:50:00;2.45;;;1.90;;
34639;SDS011;22600;48.186;11.526;2023-02-28T04:52:26;2.63;;;1.90;;
34639;SDS011;22600;48.186;11.526;2023-02-28T04:54:52;2.67;;;1.90;;
34639;SDS011;22600;48.186;11.526;2023-02-28T04:57:18;2.78;;;1.80;;
34639;SDS011;22600;48.186;11.526;2023-02-28T04:59:43;3.03;;;2.17;;
34639;SDS011;22600;48.186;11.526;2023-02-28T05:02:09;4.38;;;2.03;;
34639;SDS011;22600;48.186;11.526;2023-02-28T05:04:34;3.10;;;2.20;;
34639;SDS011;22600;48.186;11.526;2023-02-28T05:07:00;3.42;;;2.00;;
34639;SDS011;22600;48.186;11.526;2023-02-28T05:09:26;3.95;;;2.08;;
34639;SDS011;22600;48.186;11.526;2023-02-28T05:11:53;4.13;;;1.85;;
34639;SDS011;22600;48.186;11.526;2023-02-28T05:14:19;2.45;;;2.00;;
34639;SDS011;22600;48.186;11.526;2023-02-28T05:16:44;3.40;;;2.10;;
34639;SDS011;22600;48.186;11.526;2023-02-28T05:19:10;3.03;;;1.98;;
34639;SDS011;22600;48.186;11.526;2023-02-28T05:21:39;2.78;;;1.70;;
34639;SDS011;22600;48.186;11.526;2023-02-28T05:24:08;3.88;;;1.83;;
34639;SDS011;22600;48.186;11.526;2023-02-28T05:26:42;2.40;;;1.90;;
34639;SDS011;22600;48.186;11.526;2023-02-28T05:29:08;2.85;;;1.92;;
34639;SDS011;22600;48.186;11.526;2023-02-28T05:31:34;3.58;;;1.50;;
34639;SDS011;22600;48.186;11.526;2023-02-28T05:34:00;2.50;;;1.73;;
34639;SDS011;22600;48.186;11.526;2023-02-28T05:36:25;2.83;;;1.80;;
34639;SDS011;22600;48.186;11.526;2023-02-28T05:38:51;2.15;;;1.60;;
34639;SDS011;22600;48.186;11.526;2023-02-28T05:41:18;2.63;;;1.88;;
34639;SDS011;22600;48.186;11.526;2023-02-28T05:43:44;2.85;;;2.00;;
34639;SDS011;22600;48.186;11.526;2023-02-28T05:46:11;2.13;;;1.70;;
34639;SDS011;22600;48.186;11.526;2023-02-28T05:48:38;2.50;;;1.90;;
34639;SDS011;22600;48.186;11.526;2023-02-28T05:51:05;2.72;;;1.70;;
34639;SDS011;22600;48.186;11.526;2023-02-28T05:53:32;2.13;;;1.80;;
34639;SDS011;22600;48.186;11.526;2023-02-28T05:55:58;3.20;;;1.90;;
34639;SDS011;22600;48.186;11.526;2023-02-28T05:58:24;2.30;;;1.70;;
34639;SDS011;22600;48.186;11.526;2023-02-28T06:00:55;2.80;;;1.90;;
34639;SDS011;22600;48.186;11.526;2023-02-28T06:03:21;3.65;;;1.90;;
34639;SDS011;22600;48.186;11.526;2023-02-28T06:05:47;2.88;;;1.50;;
34639;SDS011;22600;48.186;11.526;2023-02-28T06:08:12;2.45;;;1.90;;
34639;SDS011;22600;48.186;11.526;2023-02-28T06:10:38;3.08;;;1.77;;
34639;SDS011;22600;48.186;11.526;2023-02-28T06:13:03;2.22;;;1.73;;
34639;SDS011;22600;48.186;11.526;2023-02-28T06:15:29;2.78;;;1.60;;
34639;SDS011;22600;48.186;11.526;2023-02-28T06:17:55;2.53;;;1.63;;
34639;SDS011;22600;48.186;11.526;2023-02-28T06:20:21;3.47;;;1.80;;
34639;SDS011;22600;48.186;11.526;2023-02-28T06:22:47;2.35;;;1.75;;
34639;SDS011;22600;48.186;11.526;2023-02-28T06:25:13;3.72;;;1.80;;
34639;SDS011;22600;48.186;11.526;2023-02-28T06:27:38;2.13;;;1.63;;
34639;SDS011;22600;48.186;11.526;2023-02-28T06:30:04;3.03;;;1.75;;
34639;SDS011;22600;48.186;11.526;2023-02-28T06:32:30;2.65;;;1.63;;
34639;SDS011;22600;48.186;11.526;2023-02-28T06:34:55;3.38;;;1.70;;
34639;SDS011;22600;48.186;11.526;2023-02-28T06:37:22;3.17;;;1.52;;
34639;SDS011;22600;48.186;11.526;2023-02-28T06:39:51;2.67;;;1.80;;
34639;SDS011;22600;48.186;11.526;2023-02-28T06:42:17;2.03;;;1.60;;
34639;SDS011;22600;48.186;11.526;2023-02-28T06:44:42;24.55;;;4.65;;
34639;SDS011;22600;48.186;11.526;2023-02-28T06:47:08;10.02;;;2.70;;
34639;SDS011;22600;48.186;11.526;2023-02-28T06:49:34;4.68;;;1.77;;
34639;SDS011;22600;48.186;11.526;2023-02-28T06:52:00;3.58;;;1.70;;
34639;SDS011;22600;48.186;11.526;2023-02-28T06:54:26;4.13;;;1.80;;
34639;SDS011;22600;48.186;11.526;2023-02-28T06:56:52;3.03;;;1.90;;
34639;SDS011;22600;48.186;11.526;2023-02-28T06:59:19;2.60;;;1.80;;
34639;SDS011;22600;48.186;11.526;2023-02-28T07:01:45;3.15;;;1.70;;
34639;SDS011;22600;48.186;11.526;2023-02-28T07:04:11;3.13;;;1.80;;
34639;SDS011;22600;48.186;11.526;2023-02-28T07:06:38;2.85;;;1.70;;
34639;SDS011;22600;48.186;11.526;2023-02-28T07:09:04;2.92;;;1.80;;
34639;SDS011;22600;48.186;11.526;2023-02-28T07:11:29;2.72;;;1.70;;
34639;SDS011;22600;48.186;11.526;2023-02-28T07:13:55;3.38;;;1.90;;
34639;SDS011;22600;48.186;11.526;2023-02-28T07:16:22;2.90;;;1.80;;
34639;SDS011;22600;48.186;11.526;2023-02-28T07:18:48;2.38;;;1.70;;
34639;SDS011;22600;48.186;11.526;2023-02-28T07:21:14;3.65;;;1.80;;
34639;SDS011;22600;48.186;11.526;2023-02-28T07:23:40;5.10;;;1.65;;
34639;SDS011;22600;48.186;11.526;2023-02-28T07:26:07;4.38;;;1.70;;
34639;SDS011;22600;48.186;11.526;2023-02-28T07:28:36;4.22;;;2.00;;
34639;SDS011;22600;48.186;11.526;2023-02-28T07:31:06;7.07;;;1.73;;
34639;SDS011;22600;48.186;11.526;2023-02-28T07:33:32;3.00;;;1.70;;
34639;SDS011;22600;48.186;11.526;2023-02-28T07:36:17;2.53;;;1.90;;
34639;SDS011;22600;48.186;11.526;2023-02-28T07:38:46;2.28;;;1.67;;
34639;SDS011;22600;48.186;11.526;2023-02-28T07:41:13;3.25;;;1.95;;
34639;SDS011;22600;48.186;11.526;2023-02-28T07:43:40;3.72;;;2.00;;
34639;SDS011;22600;48.186;11.526;2023-02-28T07:46:07;2.35;;;1.60;;
34639;SDS011;22600;48.186;11.526;2023-02-28T07:48:35;5.18;;;1.90;;
34639;SDS011;22600;48.186;11.526;2023-02-28T07:51:00;2.15;;;1.67;;
34639;SDS011;22600;48.186;11.526;2023-02-28T07:53:27;4.43;;;1.77;;
34639;SDS011;22600;48.186;11.526;2023-02-28T07:55:57;3.17;;;1.90;;
34639;SDS011;22600;48.186;11.526;2023-02-28T07:58:24;5.13;;;1.92;;
34639;SDS011;22600;48.186;11.526;2023-02-28T08:00:50;4.10;;;2.10;;
34639;SDS011;22600;48.186;11.526;2023-02-28T08:03:17;3.15;;;1.63;;
34639;SDS011;22600;48.186;11.526;2023-02-28T08:05:43;4.82;;;2.00;;
34639;SDS011;22600;48.186;11.526;2023-02-28T08:08:10;3.22;;;1.98;;
34639;SDS011;22600;48.186;11.526;2023-02-28T08:10:36;3.03;;;1.80;;
34639;SDS011;22600;48.186;11.526;2023-02-28T08:13:01;3.17;;;1.95;;
34639;SDS011;22600;48.186;11.526;2023-02-28T08:15:27;2.80;;;1.73;;
34639;SDS011;22600;48.186;11.526;2023-02-28T08:17:53;2.55;;;1.83;;
34639;SDS011;22600;48.186;11.526;2023-02-28T08:20:21;3.03;;;2.08;;
34639;SDS011;22600;48.186;11.526;2023-02-28T08:22:47;3.70;;;2.08;;
34639;SDS011;22600;48.186;11.526;2023-02-28T08:25:12;3.88;;;2.00;;
34639;SDS011;22600;48.186;11.526;2023-02-28T08:27:38;3.40;;;2.00;;
34639;SDS011;22600;48.186;11.526;2023-02-28T08:30:04;3.00;;;2.00;;
34639;SDS011;22600;48.186;11.526;2023-02-28T08:32:31;4.03;;;1.80;;
34639;SDS011;22600;48.186;11.526;2023-02-28T08:34:57;2.55;;;1.90;;
34639;SDS011;22600;48.186;11.526;2023-02-28T08:37:23;2.45;;;1.80;;
34639;SDS011;22600;48.186;11.526;2023-02-28T08:39:48;3.13;;;2.03;;
34639;SDS011;22600;48.186;11.526;2023-02-28T08:42:14;2.70;;;1.90;;
34639;SDS011;22600;48.186;11.526;2023-02-28T08:44:40;3.65;;;2.10;;
34639;SDS011;22600;48.186;11.526;2023-02-28T08:47:05;4.05;;;1.85;;
34639;SDS011;22600;48.186;11.526;2023-02-28T08:49:31;3.78;;;1.80;;
34639;SDS011;22600;48.186;11.526;2023-02-28T08:51:57;2.53;;;1.90;;
34639;SDS011;22600;48.186;11.526;2023-02-28T08:54:23;4.35;;;2.10;;
34639;SDS011;22600;48.186;11.526;2023-02-28T08:56:49;3.40;;;2.00;;
34639;SDS011;22600;48.186;11.526;2023-02-28T08:59:14;3.05;;;2.10;;
34639;SDS011;22600;48.186;11.526;2023-02-28T09:01:40;3.80;;;1.70;;
34639;SDS011;22600;48.186;11.526;2023-02-28T09:04:08;3.35;;;2.10;;
34639;SDS011;22600;48.186;11.526;2023-02-28T09:06:36;4.05;;;2.10;;
34639;SDS011;22600;48.186;11.526;2023-02-28T09:09:02;2.92;;;2.00;;
34639;SDS011;22600;48.186;11.526;2023-02-28T09:11:30;4.10;;;1.90;;
34639;SDS011;22600;48.186;11.526;2023-02-28T09:13:57;3.92;;;1.90;;
34639;SDS011;22600;48.186;11.526;2023-02-28T09:16:24;3.00;;;1.95;;
34639;SDS011;22600;48.186;11.526;2023-02-28T09:18:49;3.42;;;2.25;;
34639;SDS011;22600;48.186;11.526;2023-02-28T09:21:16;2.67;;;1.88;;
34639;SDS011;22600;48.186;11.526;2023-02-28T09:23:43;2.92;;;2.10;;
34639;SDS011;22600;48.186;11.526;2023-02-28T09:26:14;3.45;;;1.90;;
34639;SDS011;22600;48.186;11.526;2023-02-28T09:31:10;2.90;;;1.85;;
34639;SDS011;22600;48.186;11.526;2023-02-28T09:33:38;4.38;;;1.90;;
34639;SDS011;22600;48.186;11.526;2023-02-28T09:36:03;4.30;;;1.98;;
34639;SDS011;22600;48.186;11.526;2023-02-28T09:38:29;3.17;;;1.90;;
34639;SDS011;22600;48.186;11.526;2023-02-28T09:40:56;3.70;;;1.90;;
34639;SDS011;22600;48.186;11.526;2023-02-28T09:43:47;3.88;;;2.20;;
34639;SDS011;22600;48.186;11.526;2023-02-28T09:46:37;3.13;;;1.90;;
34639;SDS011;22600;48.186;11.526;2023-02-28T09:49:16;3.40;;;1.70;;
34639;SDS011;22600;48.186;11.526;2023-02-28T09:54:28;2.40;;;1.70;;
34639;SDS011;22600;48.186;11.526;2023-02-28T09:59:48;3.03;;;2.10;;
34639;SDS011;22600;48.186;11.526;2023-02-28T10:05:27;3.63;;;2.13;;
34639;SDS011;22600;48.186;11.526;2023-02-28T10:10:44;3.80;;;1.90;;
34639;SDS011;22600;48.186;11.526;2023-02-28T10:15:50;3.88;;;2.10;;
34639;SDS011;22600;48.186;11.526;2023-02-28T10:18:24;5.55;;;1.90;;
34639;SDS011;22600;48.186;11.526;2023-02-28T10:20:52;3.33;;;1.85;;
34639;SDS011;22600;48.186;11.526;2023-02-28T10:23:21;4.13;;;1.95;;
34639;SDS011;22600;48.186;11.526;2023-02-28T10:26:03;2.88;;;1.90;;
34639;SDS011;22600;48.186;11.526;2023-02-28T10:28:36;2.80;;;2.03;;
34639;SDS011;22600;48.186;11.526;2023-02-28T10:31:01;3.75;;;2.10;;
34639;SDS011;22600;48.186;11.526;2023-02-28T10:35:54;3.58;;;2.10;;
34639;SDS011;22600;48.186;11.526;2023-02-28T10:38:24;3.10;;;1.92;;
34639;SDS011;22600;48.186;11.526;2023-02-28T10:41:02;3.28;;;1.92;;
34639;SDS011;22600;48.186;11.526;2023-02-28T10:43:36;3.47;;;2.03;;
34639;SDS011;22600;48.186;11.526;2023-02-28T10:48:38;2.75;;;2.15;;
34639;SDS011;22600;48.186;11.526;2023-02-28T10:51:08;3.38;;;1.73;;
34639;SDS011;22600;48.186;11.526;2023-02-28T10:53:45;2.30;;;1.70;;
34639;SDS011;22600;48.186;11.526;2023-02-28T10:56:23;2.78;;;1.73;;
34639;SDS011;22600;48.186;11.526;2023-02-28T11:01:40;2.95;;;1.90;;
34639;SDS011;22600;48.186;11.526;2023-02-28T11:09:49;3.00;;;1.90;;
34639;SDS011;22600;48.186;11.526;2023-02-28T11:12:26;2.67;;;1.80;;
34639;SDS011;22600;48.186;11.526;2023-02-28T11:14:55;2.75;;;1.85;;
34639;SDS011;22600;48.186;11.526;2023-02-28T11:17:25;3.08;;;2.00;;
34639;SDS011;22600;48.186;11.526;2023-02-28T11:19:54;2.83;;;1.90;;
34639;SDS011;22600;48.186;11.526;2023-02-28T11:22:28;2.47;;;1.88;;
34639;SDS011;22600;48.186;11.526;2023-02-28T11:24:58;2.50;;;1.70;;
34639;SDS011;22600;48.186;11.526;2023-02-28T11:29:54;3.08;;;2.00;;
34639;SDS011;22600;48.186;11.526;2023-02-28T11:32:21;3.83;;;2.10;;
34639;SDS011;22600;48.186;11.526;2023-02-28T11:37:37;2.80;;;1.83;;
34639;SDS011;22600;48.186;11.526;2023-02-28T11:40:13;2.78;;;1.85;;
34639;SDS011;22600;48.186;11.526;2023-02-28T11:42:51;3.25;;;2.03;;
34639;SDS011;22600;48.186;11.526;2023-02-28T11:48:22;4.78;;;2.10;;
34639;SDS011;22600;48.186;11.526;2023-02-28T11:50:52;3.70;;;2.00;;
34639;SDS011;22600;48.186;11.526;2023-02-28T11:56:10;2.85;;;1.85;;
34639;SDS011;22600;48.186;11.526;2023-02-28T12:04:42;5.22;;;2.00;;
34639;SDS011;22600;48.186;11.526;2023-02-28T12:07:23;3.67;;;1.90;;
34639;SDS011;22600;48.186;11.526;2023-02-28T12:10:05;2.53;;;1.80;;
34639;SDS011;22600;48.186;11.526;2023-02-28T12:26:45;4.10;;;2.00;;
34639;SDS011;22600;48.186;11.526;2023-02-28T12:29:14;4.28;;;1.80;;
34639;SDS011;22600;48.186;11.526;2023-02-28T12:32:05;2.97;;;2.03;;
34639;SDS011;22600;48.186;11.526;2023-02-28T12:34:33;2.88;;;2.00;;
34639;SDS011;22600;48.186;11.526;2023-02-28T12:37:07;2.20;;;1.83;;
34639;SDS011;22600;48.186;11.526;2023-02-28T12:39:45;2.75;;;1.80;;
34639;SDS011;22600;48.186;11.526;2023-02-28T12:42:17;3.40;;;2.00;;
34639;SDS011;22600;48.186;11.526;2023-02-28T12:44:57;3.05;;;1.90;;
34639;SDS011;22600;48.186;11.526;2023-02-28T12:47:25;2.15;;;1.70;;
34639;SDS011;22600;48.186;11.526;2023-02-28T12:49:53;2.72;;;1.92;;
34639;SDS011;22600;48.186;11.526;2023-02-28T12:52:28;4.82;;;1.83;;
34639;SDS011;22600;48.186;11.526;2023-02-28T12:57:42;2.95;;;1.60;;
34639;SDS011;22600;48.186;11.526;2023-02-28T13:00:24;2.22;;;1.70;;
34639;SDS011;22600;48.186;11.526;2023-02-28T13:05:56;2.72;;;2.00;;
34639;SDS011;22600;48.186;11.526;2023-02-28T13:11:06;4.85;;;2.38;;
34639;SDS011;22600;48.186;11.526;2023-02-28T13:13:32;3.35;;;2.10;;
34639;SDS011;22600;48.186;11.526;2023-02-28T13:18:46;3.85;;;2.10;;
34639;SDS011;22600;48.186;11.526;2023-02-28T13:21:23;2.47;;;1.88;;
34639;SDS011;22600;48.186;11.526;2023-02-28T13:34:31;3.90;;;2.03;;
34639;SDS011;22600;48.186;11.526;2023-02-28T13:55:32;2.53;;;1.90;;
34639;SDS011;22600;48.186;11.526;2023-02-28T14:01:01;3.67;;;2.08;;
34639;SDS011;22600;48.186;11.526;2023-02-28T14:07:01;2.90;;;1.95;;
34639;SDS011;22600;48.186;11.526;2023-02-28T14:09:29;4.03;;;2.25;;
34639;SDS011;22600;48.186;11.526;2023-02-28T14:11:56;5.22;;;2.30;;
34639;SDS011;22600;48.186;11.526;2023-02-28T14:17:04;3.78;;;2.15;;
34639;SDS011;22600;48.186;11.526;2023-02-28T14:19:33;4.25;;;2.17;;
34639;SDS011;22600;48.186;11.526;2023-02-28T14:24:31;4.85;;;2.25;;
34639;SDS011;22600;48.186;11.526;2023-02-28T14:37:50;3.15;;;2.10;;
34639;SDS011;22600;48.186;11.526;2023-02-28T14:40:17;3.45;;;2.03;;
34639;SDS011;22600;48.186;11.526;2023-02-28T14:42:56;6.95;;;2.20;;
34639;SDS011;22600;48.186;11.526;2023-02-28T14:45:23;2.78;;;1.90;;
34639;SDS011;22600;48.186;11.526;2023-02-28T14:47:49;3.17;;;1.98;;
34639;SDS011;22600;48.186;11.526;2023-02-28T14:50:18;5.53;;;1.92;;
34639;SDS011;22600;48.186;11.526;2023-02-28T14:52:45;3.50;;;2.00;;
34639;SDS011;22600;48.186;11.526;2023-02-28T14:55:15;3.50;;;2.15;;
34639;SDS011;22600;48.186;11.526;2023-02-28T14:57:57;4.57;;;2.30;;
34639;SDS011;22600;48.186;11.526;2023-02-28T15:02:54;6.25;;;2.70;;
34639;SDS011;22600;48.186;11.526;2023-02-28T15:08:12;5.10;;;2.95;;
34639;SDS011;22600;48.186;11.526;2023-02-28T15:10:45;5.68;;;2.78;;
34639;SDS011;22600;48.186;11.526;2023-02-28T15:15:53;4.13;;;2.58;;
34639;SDS011;22600;48.186;11.526;2023-02-28T15:20:57;5.20;;;3.00;;
34639;SDS011;22600;48.186;11.526;2023-02-28T15:23:26;6.43;;;3.00;;
34639;SDS011;22600;48.186;11.526;2023-02-28T15:25:52;5.05;;;2.88;;
34639;SDS011;22600;48.186;11.526;2023-02-28T15:28:19;4.80;;;2.83;;
34639;SDS011;22600;48.186;11.526;2023-02-28T15:30:58;5.60;;;2.60;;
34639;SDS011;22600;48.186;11.526;2023-02-28T15:33:29;4.55;;;2.78;;
34639;SDS011;22600;48.186;11.526;2023-02-28T15:36:03;4.55;;;2.70;;
34639;SDS011;22600;48.186;11.526;2023-02-28T15:38:39;6.13;;;2.60;;
34639;SDS011;22600;48.186;11.526;2023-02-28T15:41:20;6.00;;;2.50;;
34639;SDS011;22600;48.186;11.526;2023-02-28T15:46:43;4.35;;;2.80;;
34639;SDS011;22600;48.186;11.526;2023-02-28T15:49:20;8.75;;;2.47;;
34639;SDS011;22600;48.186;11.526;2023-02-28T15:51:47;4.65;;;2.70;;
34639;SDS011;22600;48.186;11.526;2023-02-28T15:54:17;4.15;;;2.50;;
34639;SDS011;22600;48.186;11.526;2023-02-28T15:56:47;4.68;;;2.40;;
34639;SDS011;22600;48.186;11.526;2023-02-28T15:59:18;5.00;;;2.42;;
34639;SDS011;22600;48.186;11.526;2023-02-28T16:02:02;4.28;;;2.80;;
34639;SDS011;22600;48.186;11.526;2023-02-28T16:04:37;5.10;;;2.38;;
34639;SDS011;22600;48.186;11.526;2023-02-28T16:07:20;3.75;;;2.42;;
34639;SDS011;22600;48.186;11.526;2023-02-28T16:09:45;4.25;;;2.63;;
34639;SDS011;22600;48.186;11.526;2023-02-28T16:12:12;3.90;;;2.45;;
34639;SDS011;22600;48.186;11.526;2023-02-28T16:14:38;5.65;;;2.58;;
34639;SDS011;22600;48.186;11.526;2023-02-28T16:17:06;5.00;;;2.90;;
34639;SDS011;22600;48.186;11.526;2023-02-28T16:19:33;4.18;;;2.63;;
34639;SDS011;22600;48.186;11.526;2023-02-28T16:21:59;4.47;;;2.70;;
34639;SDS011;22600;48.186;11.526;2023-02-28T16:24:25;5.53;;;2.63;;
34639;SDS011;22600;48.186;11.526;2023-02-28T16:26:52;3.58;;;2.40;;
34639;SDS011;22600;48.186;11.526;2023-02-28T16:29:33;4.78;;;2.47;;
34639;SDS011;22600;48.186;11.526;2023-02-28T16:32:01;8.65;;;2.70;;
34639;SDS011;22600;48.186;11.526;2023-02-28T16:34:30;4.82;;;2.72;;
34639;SDS011;22600;48.186;11.526;2023-02-28T16:36:56;6.70;;;2.75;;
34639;SDS011;22600;48.186;11.526;2023-02-28T16:39:23;5.35;;;2.63;;
34639;SDS011;22600;48.186;11.526;2023-02-28T16:41:49;4.13;;;2.45;;
34639;SDS011;22600;48.186;11.526;2023-02-28T16:44:23;4.03;;;2.60;;
34639;SDS011;22600;48.186;11.526;2023-02-28T16:46:59;5.35;;;2.60;;
34639;SDS011;22600;48.186;11.526;2023-02-28T16:49:26;5.03;;;2.40;;
34639;SDS011;22600;48.186;11.526;2023-02-28T16:51:52;4.75;;;2.20;;
34639;SDS011;22600;48.186;11.526;2023-02-28T16:54:17;5.60;;;2.53;;
34639;SDS011;22600;48.186;11.526;2023-02-28T16:56:44;4.47;;;2.50;;
34639;SDS011;22600;48.186;11.526;2023-02-28T16:59:12;4.00;;;2.30;;
34639;SDS011;22600;48.186;11.526;2023-02-28T17:01:38;3.60;;;2.33;;
34639;SDS011;22600;48.186;11.526;2023-02-28T17:04:04;4.68;;;2.40;;
34639;SDS011;22600;48.186;11.526;2023-02-28T17:06:29;3.60;;;2.35;;
34639;SDS011;22600;48.186;11.526;2023-02-28T17:08:56;4.32;;;2.60;;
34639;SDS011;22600;48.186;11.526;2023-02-28T17:11:23;3.95;;;2.38;;
34639;SDS011;22600;48.186;11.526;2023-02-28T17:13:49;4.25;;;2.17;;
34639;SDS011;22600;48.186;11.526;2023-02-28T17:18:58;3.92;;;2.50;;
34639;SDS011;22600;48.186;11.526;2023-02-28T17:21:25;4.75;;;2.25;;
34639;SDS011;22600;48.186;11.526;2023-02-28T17:23:51;7.25;;;2.40;;
34639;SDS011;22600;48.186;11.526;2023-02-28T17:26:18;4.72;;;2.63;;
34639;SDS011;22600;48.186;11.526;2023-02-28T17:28:48;4.30;;;2.63;;
34639;SDS011;22600;48.186;11.526;2023-02-28T17:31:14;3.90;;;2.42;;
34639;SDS011;22600;48.186;11.526;2023-02-28T17:33:40;4.72;;;2.47;;
34639;SDS011;22600;48.186;11.526;2023-02-28T17:36:06;4.82;;;2.65;;
34639;SDS011;22600;48.186;11.526;2023-02-28T17:38:35;4.57;;;2.40;;
34639;SDS011;22600;48.186;11.526;2023-02-28T17:41:00;3.50;;;2.50;;
34639;SDS011;22600;48.186;11.526;2023-02-28T17:43:26;4.75;;;2.60;;